Hidden Valley, PA (15502)

1:04 PM EDT on July 28, 2016 (GMT -0400)
northwest of court house 1 1/2 blocks | | Change Station

Elev 2139 ft 40.01 °N, 79.08 °W | Updated 12 minutes ago

Rain
Rain Mist
68.4 °F
Feels Like 68.4 °F
N
0.0
Wind Variable Wind from ESE

Today
High -- | Low -- °F
--% Chance of Precip.
Yesterday
High -- | Low -- °F
Precip. -- in
Pressure 29.96 in
Visibility 1.5 miles
Clouds Few 1600 ft
Overcast 10000 ft
Dew Point 65 °F
Humidity 90%
Rainfall 0.13 in
Snow Depth Not available.
6:11 AM 8:33 PM
Waning Crescent, 30% visible
METAR KJST 281654Z AUTO 23004KT 1 1/2SM RA BR FEW016 OVC100 22/20 A3000 RMK AO2 LTG DSNT SE AND W AND NW SLP145 P0004 T02220200
Pressure 29.96 in
Visibility 1.5 miles
Clouds Few 1600 ft
Overcast 10000 ft
Dew Point 65 °F
Humidity 90%
Rainfall 0.13 in
Snow Depth Not available.
6:11 AM 8:33 PM
Waning Crescent, 30% visible
METAR KJST 281654Z AUTO 23004KT 1 1/2SM RA BR FEW016 OVC100 22/20 A3000 RMK AO2 LTG DSNT SE AND W AND NW SLP145 P0004 T02220200

10-Day Weather Forecast

Almanac

Astronomy

Jul. 28, 2016 Rise Set
Actual Time
Civil Twilight
Nautical Twilight
Astronomical Twilight
Moon
Length of Visible Light
Length of Day
Tomorrow will be .
, % of the Moon is Illuminated

Today's Extremes

State Highs State Lows

Community

WunderPhotos

Upload Photos

1,928,155 photos uploaded!

WunderBlog® & News

Nearby

Air Quality

  Air Quality AQ Index Pollutant
Not available.

Snow Depth

Station Depth Elevation

Earthquake Activity

City Distance Mag. Time & Date
Minimum magnitude displayed is 2.5.

Coastal Water Temperatures

Place Temperature

Stations

Nearby Weather Stations

Station Location Temp. Windchill Dew Point Humidity Wind Precip. Elev Updated Type
                   

Watches & Warnings

There are currently no watches in effect.